createdAt,value
2023-05-02T00:00:47.812Z,23.35
2023-05-02T00:03:14.588Z,22.90
2023-05-02T00:05:41.181Z,22.52
2023-05-02T00:08:07.879Z,24.95
2023-05-02T00:10:34.724Z,24.02
2023-05-02T00:13:01.280Z,24.60
2023-05-02T00:15:27.919Z,24.83
2023-05-02T00:17:54.631Z,26.60
2023-05-02T00:20:21.214Z,25.77
2023-05-02T00:22:47.821Z,26.48
2023-05-02T00:25:14.409Z,24.55
2023-05-02T00:27:40.914Z,25.98
2023-05-02T00:30:08.205Z,28.10
2023-05-02T00:32:34.896Z,28.27
2023-05-02T00:35:01.438Z,28.67
2023-05-02T00:37:27.983Z,30.30
2023-05-02T00:39:54.881Z,30.52
2023-05-02T00:42:21.404Z,29.33
2023-05-02T00:44:47.970Z,31.60
2023-05-02T00:47:15.386Z,30.58
2023-05-02T00:49:42.004Z,31.38
2023-05-02T00:52:08.834Z,30.02
2023-05-02T00:54:37.828Z,32.75
2023-05-02T00:57:04.329Z,31.63
2023-05-02T00:59:30.809Z,32.22
2023-05-02T01:02:22.712Z,28.92
2023-05-02T01:05:15.327Z,31.67
2023-05-02T01:08:05.387Z,31.63
2023-05-02T01:10:55.914Z,31.83
2023-05-02T01:13:27.546Z,31.42
2023-05-02T01:15:57.861Z,28.33
2023-05-02T01:18:27.224Z,32.13
2023-05-02T01:21:00.813Z,30.65
2023-05-02T01:23:38.935Z,29.70
2023-05-02T01:26:40.499Z,28.38
2023-05-02T01:29:08.613Z,28.13
2023-05-02T01:31:41.836Z,33.22
2023-05-02T01:34:10.964Z,28.85
2023-05-02T01:36:42.598Z,30.48
2023-05-02T01:39:11.300Z,30.33
2023-05-02T01:41:38.959Z,28.90
2023-05-02T01:44:07.515Z,28.50
2023-05-02T01:46:38.040Z,30.75
2023-05-02T01:49:07.626Z,29.90
2023-05-02T01:51:37.361Z,29.42
2023-05-02T01:54:06.854Z,27.25
2023-05-02T01:56:37.110Z,28.92
2023-05-02T01:59:07.842Z,25.17
2023-05-02T02:01:36.533Z,26.98
2023-05-02T02:04:04.636Z,26.83
2023-05-02T02:06:31.340Z,26.23
2023-05-02T02:08:57.979Z,27.77
2023-05-02T02:11:42.046Z,26.17
2023-05-02T02:14:19.084Z,26.55
2023-05-02T02:16:46.204Z,25.95
2023-05-02T02:19:14.905Z,25.13
2023-05-02T02:21:45.596Z,25.95
2023-05-02T02:24:13.373Z,23.88
2023-05-02T02:26:39.976Z,26.90
2023-05-02T02:29:06.569Z,27.08
2023-05-02T02:31:34.594Z,25.50
2023-05-02T02:34:02.199Z,26.00
2023-05-02T02:36:54.895Z,25.52
2023-05-02T02:39:54.820Z,25.38
2023-05-02T02:42:42.309Z,25.95
2023-05-02T02:45:38.476Z,25.90
2023-05-02T02:48:20.046Z,26.10
2023-05-02T02:51:13.904Z,26.20
2023-05-02T02:53:49.915Z,25.13
2023-05-02T02:56:29.806Z,23.58
2023-05-02T02:59:15.393Z,26.13
2023-05-02T03:01:46.679Z,25.67
2023-05-02T03:04:15.984Z,25.25
2023-05-02T03:06:42.780Z,25.40
2023-05-02T03:09:15.799Z,26.13
2023-05-02T03:11:42.374Z,26.15
2023-05-02T03:14:08.896Z,23.55
2023-05-02T03:16:39.591Z,23.58
2023-05-02T03:19:07.449Z,22.13
2023-05-02T03:21:34.621Z,23.70
2023-05-02T03:24:02.342Z,23.73
2023-05-02T03:26:29.135Z,23.83
2023-05-02T03:28:56.854Z,24.42
2023-05-02T03:31:26.056Z,22.95
2023-05-02T03:33:52.980Z,23.38
2023-05-02T03:36:19.501Z,22.15
2023-05-02T03:38:46.021Z,23.17
2023-05-02T03:41:12.627Z,23.45
2023-05-02T03:43:39.128Z,22.98
2023-05-02T03:46:07.576Z,24.65
2023-05-02T03:48:34.571Z,24.48
2023-05-02T03:51:02.749Z,24.08
2023-05-02T03:53:30.412Z,24.40
2023-05-02T03:55:57.327Z,21.25
2023-05-02T03:58:23.902Z,22.33
2023-05-02T04:00:50.481Z,22.55
2023-05-02T04:03:17.055Z,21.95
2023-05-02T04:05:43.675Z,21.23
2023-05-02T04:08:10.266Z,21.20
2023-05-02T04:10:36.781Z,17.50
2023-05-02T04:13:03.922Z,17.80
2023-05-02T04:15:31.675Z,17.85
2023-05-02T04:17:58.571Z,16.45
2023-05-02T04:20:25.441Z,15.90
2023-05-02T04:22:52.653Z,13.80
2023-05-02T04:25:19.167Z,11.98
2023-05-02T04:27:45.713Z,11.20
2023-05-02T04:30:12.411Z,11.13
2023-05-02T04:32:39.080Z,11.48
2023-05-02T04:35:05.998Z,10.63
2023-05-02T04:37:32.712Z,10.32
2023-05-02T04:39:59.340Z,8.95
2023-05-02T04:42:26.077Z,9.40
2023-05-02T04:44:52.624Z,8.60
2023-05-02T04:47:19.110Z,9.15
2023-05-02T04:49:45.688Z,9.45
2023-05-02T04:52:12.258Z,9.45
2023-05-02T04:54:38.824Z,9.07
2023-05-02T04:57:05.351Z,9.75
2023-05-02T04:59:31.934Z,8.18
2023-05-02T05:01:58.831Z,9.15
2023-05-02T05:04:25.360Z,9.40
2023-05-02T05:06:52.080Z,9.20
2023-05-02T05:09:18.691Z,8.93
2023-05-02T05:11:45.254Z,9.38
2023-05-02T05:14:12.050Z,8.68
2023-05-02T05:16:38.707Z,8.55
2023-05-02T05:19:05.265Z,8.40
2023-05-02T05:21:31.823Z,7.93
2023-05-02T05:23:58.402Z,8.93
2023-05-02T05:26:24.940Z,9.13
2023-05-02T05:28:51.478Z,8.30
2023-05-02T05:31:18.265Z,8.07
2023-05-02T05:33:44.968Z,7.72
2023-05-02T05:36:13.595Z,9.20
2023-05-02T05:38:40.361Z,8.30
2023-05-02T05:41:07.206Z,7.85
2023-05-02T05:43:36.106Z,8.95
2023-05-02T05:46:04.437Z,9.50
2023-05-02T05:48:31.007Z,8.57
2023-05-02T05:50:57.666Z,7.53
2023-05-02T05:53:24.210Z,9.73
2023-05-02T05:55:50.718Z,9.63
2023-05-02T05:58:17.237Z,9.13
2023-05-02T06:00:43.716Z,8.82
2023-05-02T06:03:10.444Z,8.98
2023-05-02T06:05:37.198Z,9.23
2023-05-02T06:08:03.974Z,8.55
2023-05-02T06:10:31.831Z,8.48
2023-05-02T06:12:58.478Z,9.13
2023-05-02T06:15:25.059Z,8.98
2023-05-02T06:17:52.108Z,9.13
2023-05-02T06:20:18.917Z,9.02
2023-05-02T06:22:45.732Z,8.63
2023-05-02T06:25:12.265Z,9.40
2023-05-02T06:27:38.755Z,8.40
2023-05-02T06:30:06.103Z,8.70
2023-05-02T06:32:32.727Z,10.20
2023-05-02T06:34:59.418Z,9.15
2023-05-02T06:37:25.934Z,9.60
2023-05-02T06:39:52.441Z,9.30
2023-05-02T06:42:18.924Z,9.68
2023-05-02T06:44:45.455Z,8.85
2023-05-02T06:47:12.311Z,9.48
2023-05-02T06:49:38.865Z,8.80
2023-05-02T06:52:05.389Z,6.95
2023-05-02T06:54:31.876Z,7.78
2023-05-02T06:56:59.602Z,8.00
2023-05-02T06:59:26.086Z,7.70
2023-05-02T07:01:52.619Z,7.20
2023-05-02T07:04:19.144Z,9.07
2023-05-02T07:06:46.811Z,7.68
2023-05-02T07:09:13.393Z,6.55
2023-05-02T07:11:40.066Z,6.78
2023-05-02T07:14:06.605Z,5.90
2023-05-02T07:16:33.180Z,5.18
2023-05-02T07:18:59.669Z,4.93
2023-05-02T07:21:26.197Z,4.30
2023-05-02T07:23:52.709Z,5.18
2023-05-02T07:26:19.333Z,3.13
2023-05-02T07:28:45.809Z,3.13
2023-05-02T07:31:12.280Z,2.80
2023-05-02T07:33:38.765Z,2.60
2023-05-02T07:36:05.535Z,2.72
2023-05-02T07:38:32.042Z,2.40
2023-05-02T07:41:00.349Z,2.28
2023-05-02T07:43:27.216Z,2.20
2023-05-02T07:45:53.724Z,2.13
2023-05-02T07:48:20.277Z,2.17
2023-05-02T07:50:46.876Z,2.28
2023-05-02T07:53:13.400Z,2.50
2023-05-02T07:55:39.930Z,2.53
2023-05-02T07:58:06.497Z,2.58
2023-05-02T08:00:33.455Z,2.55
2023-05-02T08:03:00.136Z,2.88
2023-05-02T08:05:27.022Z,2.80
2023-05-02T08:07:53.562Z,2.60
2023-05-02T08:10:20.102Z,2.22
2023-05-02T08:12:46.596Z,2.67
2023-05-02T08:15:13.155Z,2.40
2023-05-02T08:17:39.754Z,2.80
2023-05-02T08:20:07.011Z,3.10
2023-05-02T08:22:33.538Z,2.45
2023-05-02T08:25:00.098Z,2.40
2023-05-02T08:27:26.875Z,2.10
2023-05-02T08:29:53.414Z,2.42
2023-05-02T08:32:19.953Z,2.10
2023-05-02T08:34:46.432Z,2.20
2023-05-02T08:37:13.499Z,2.28
2023-05-02T08:39:40.047Z,2.13
2023-05-02T08:42:09.565Z,1.83
2023-05-02T08:44:37.272Z,2.25
2023-05-02T08:47:05.177Z,2.05
2023-05-02T08:49:32.279Z,2.10
2023-05-02T08:52:00.409Z,2.13
2023-05-02T08:54:27.237Z,2.40
2023-05-02T08:56:54.479Z,2.70
2023-05-02T08:59:21.115Z,2.13
2023-05-02T09:01:52.711Z,2.22
2023-05-02T09:04:26.676Z,2.35
2023-05-02T09:06:53.269Z,2.20
2023-05-02T09:09:19.865Z,1.80
2023-05-02T09:11:52.521Z,2.58
2023-05-02T09:14:19.100Z,2.25
2023-05-02T09:16:47.953Z,2.30
2023-05-02T09:19:25.943Z,2.50
2023-05-02T09:21:58.736Z,2.78
2023-05-02T09:24:25.506Z,2.20
2023-05-02T09:27:07.215Z,2.58
2023-05-02T09:29:34.443Z,3.03
2023-05-02T09:32:04.405Z,2.35
2023-05-02T09:34:31.008Z,2.60
2023-05-02T09:36:57.655Z,2.50
2023-05-02T09:39:28.800Z,2.20
2023-05-02T09:41:56.165Z,2.92
2023-05-02T09:44:27.380Z,3.25
2023-05-02T09:46:55.486Z,2.72
2023-05-02T09:49:42.112Z,2.28
2023-05-02T09:52:13.394Z,2.67
2023-05-02T09:54:40.021Z,2.45
2023-05-02T09:57:06.557Z,1.70
2023-05-02T09:59:33.479Z,1.92
2023-05-02T10:02:05.309Z,1.95
2023-05-02T10:04:33.278Z,1.73
2023-05-02T10:07:01.511Z,1.90
2023-05-02T10:09:29.947Z,2.15
2023-05-02T10:11:56.766Z,1.90
2023-05-02T10:14:27.036Z,2.03
2023-05-02T10:17:20.316Z,2.25
2023-05-02T10:20:07.026Z,2.00
2023-05-02T10:22:34.802Z,2.47
2023-05-02T10:25:03.337Z,2.30
2023-05-02T10:27:30.703Z,2.53
2023-05-02T10:29:59.391Z,2.20
2023-05-02T10:32:28.438Z,2.13
2023-05-02T10:34:57.051Z,2.67
2023-05-02T10:37:25.711Z,2.20
2023-05-02T10:39:52.432Z,2.15
2023-05-02T10:42:21.021Z,2.83
2023-05-02T10:44:47.652Z,2.65
2023-05-02T10:47:21.898Z,2.78
2023-05-02T10:50:05.044Z,3.00
2023-05-02T10:52:34.290Z,2.30
2023-05-02T10:55:16.331Z,2.30
2023-05-02T10:57:57.850Z,2.40
2023-05-02T11:00:25.761Z,1.88
2023-05-02T11:02:52.607Z,2.13
2023-05-02T11:05:19.302Z,2.08
2023-05-02T11:07:45.816Z,2.15
2023-05-02T11:10:18.213Z,2.45
2023-05-02T11:12:45.985Z,2.33
2023-05-02T11:15:15.211Z,2.40
2023-05-02T11:18:00.502Z,2.72
2023-05-02T11:20:27.641Z,2.65
2023-05-02T11:22:56.089Z,2.13
2023-05-02T11:25:36.988Z,2.40
2023-05-02T11:28:06.493Z,2.55
2023-05-02T11:30:41.267Z,2.15
2023-05-02T11:33:07.827Z,2.42
2023-05-02T11:35:35.808Z,2.53
2023-05-02T11:38:04.255Z,2.28
2023-05-02T11:40:31.746Z,2.65
2023-05-02T11:43:00.025Z,2.40
2023-05-02T11:45:36.633Z,2.33
2023-05-02T11:48:05.599Z,2.60
2023-05-02T11:50:48.790Z,3.28
2023-05-02T11:53:19.282Z,2.40
2023-05-02T11:55:47.814Z,2.05
2023-05-02T11:58:15.880Z,2.63
2023-05-02T12:00:43.644Z,2.90
2023-05-02T12:03:23.153Z,2.40
2023-05-02T12:05:50.540Z,2.50
2023-05-02T12:08:21.492Z,3.20
2023-05-02T12:10:48.719Z,2.58
2023-05-02T12:13:15.232Z,2.40
2023-05-02T12:15:42.041Z,2.70
2023-05-02T12:18:08.969Z,2.58
2023-05-02T12:20:37.106Z,2.40
2023-05-02T12:23:05.119Z,2.63
2023-05-02T12:25:31.722Z,2.50
2023-05-02T12:28:02.319Z,3.13
2023-05-02T12:30:30.006Z,2.78
2023-05-02T12:32:58.719Z,3.00
2023-05-02T12:35:25.398Z,2.58
2023-05-02T12:37:52.746Z,2.72
2023-05-02T12:40:19.288Z,2.53
2023-05-02T12:42:59.583Z,2.95
2023-05-02T12:45:26.150Z,2.35
2023-05-02T12:47:52.815Z,2.45
2023-05-02T12:50:19.358Z,2.80
2023-05-02T12:52:51.135Z,2.38
2023-05-02T12:55:22.688Z,2.65
2023-05-02T12:57:49.188Z,2.40
2023-05-02T13:00:18.822Z,2.35
2023-05-02T13:02:45.324Z,2.85
2023-05-02T13:05:16.313Z,3.10
2023-05-02T13:07:42.954Z,3.08
2023-05-02T13:10:09.744Z,2.50
2023-05-02T13:12:36.215Z,2.45
2023-05-02T13:15:06.848Z,2.30
2023-05-02T13:17:36.757Z,2.38
2023-05-02T13:20:03.962Z,2.75
2023-05-02T13:22:30.907Z,2.40
2023-05-02T13:24:57.451Z,2.22
2023-05-02T13:27:24.217Z,2.58
2023-05-02T13:29:51.019Z,2.47
2023-05-02T13:32:18.112Z,2.67
2023-05-02T13:34:44.983Z,2.65
2023-05-02T13:37:11.703Z,2.50
2023-05-02T13:39:38.253Z,2.55
2023-05-02T13:42:06.169Z,2.45
2023-05-02T13:44:32.949Z,2.90
2023-05-02T13:46:59.438Z,2.88
2023-05-02T13:49:26.031Z,2.58
2023-05-02T13:51:52.533Z,2.70
2023-05-02T13:54:19.081Z,2.70
2023-05-02T13:56:45.576Z,3.42
2023-05-02T13:59:12.091Z,3.08
2023-05-02T14:01:38.692Z,2.40
2023-05-02T14:04:05.336Z,2.60
2023-05-02T14:06:32.235Z,2.63
2023-05-02T14:08:58.807Z,2.47
2023-05-02T14:11:25.348Z,2.45
2023-05-02T14:13:52.420Z,2.67
2023-05-02T14:16:19.242Z,2.25
2023-05-02T14:18:45.781Z,2.65
2023-05-02T14:21:12.294Z,2.63
2023-05-02T14:23:38.778Z,3.05
2023-05-02T14:26:05.614Z,2.78
2023-05-02T14:28:32.092Z,2.97
2023-05-02T14:30:58.647Z,2.50
2023-05-02T14:33:25.184Z,2.45
2023-05-02T14:35:51.657Z,2.90
2023-05-02T14:38:18.160Z,2.45
2023-05-02T14:40:44.659Z,2.90
2023-05-02T14:43:13.240Z,5.55
2023-05-02T14:45:39.769Z,7.20
2023-05-02T14:48:06.488Z,4.32
2023-05-02T14:50:33.003Z,2.97
2023-05-02T14:52:59.532Z,2.75
2023-05-02T14:55:26.057Z,2.50
2023-05-02T14:57:52.575Z,3.38
2023-05-02T15:00:19.143Z,2.92
2023-05-02T15:02:45.752Z,2.47
2023-05-02T15:05:12.692Z,2.88
2023-05-02T15:07:39.533Z,2.92
2023-05-02T15:10:06.484Z,2.97
2023-05-02T15:12:32.951Z,3.08
2023-05-02T15:14:59.435Z,2.55
2023-05-02T15:17:25.922Z,2.42
2023-05-02T15:19:52.467Z,2.60
2023-05-02T15:22:18.939Z,2.63
2023-05-02T15:24:45.469Z,3.05
2023-05-02T15:27:11.990Z,2.60
2023-05-02T15:29:38.496Z,3.05
2023-05-02T15:32:05.151Z,3.33
2023-05-02T15:34:31.729Z,2.70
2023-05-02T15:36:59.925Z,3.28
2023-05-02T15:39:26.536Z,4.05
2023-05-02T15:41:53.165Z,2.63
2023-05-02T15:44:19.673Z,3.17
2023-05-02T15:46:46.289Z,3.30
2023-05-02T15:49:13.272Z,2.80
2023-05-02T15:51:39.835Z,2.55
2023-05-02T15:54:06.853Z,2.78
2023-05-02T15:56:33.425Z,3.15
2023-05-02T15:58:59.977Z,2.90
2023-05-02T16:01:26.494Z,2.95
2023-05-02T16:03:53.149Z,3.03
2023-05-02T16:06:19.870Z,3.33
2023-05-02T16:08:46.455Z,2.88
2023-05-02T16:11:13.058Z,2.40
2023-05-02T16:13:39.607Z,2.83
2023-05-02T16:16:06.327Z,2.65
2023-05-02T16:18:33.715Z,2.60
2023-05-02T16:21:00.241Z,2.90
2023-05-02T16:23:26.851Z,2.50
2023-05-02T16:26:00.510Z,2.78
2023-05-02T16:28:27.256Z,2.95
2023-05-02T16:30:53.891Z,2.67
2023-05-02T16:33:21.262Z,2.95
2023-05-02T16:35:48.057Z,2.63
2023-05-02T16:38:14.703Z,2.38
2023-05-02T16:40:41.267Z,3.05
2023-05-02T16:43:07.791Z,2.83
2023-05-02T16:45:34.332Z,2.38
2023-05-02T16:48:00.946Z,2.67
2023-05-02T16:50:27.518Z,2.20
2023-05-02T16:52:54.104Z,2.00
2023-05-02T16:55:20.844Z,2.35
2023-05-02T16:57:47.354Z,2.55
2023-05-02T17:00:14.537Z,2.90
2023-05-02T17:02:41.105Z,2.28
2023-05-02T17:05:08.300Z,2.50
2023-05-02T17:07:34.828Z,2.92
2023-05-02T17:10:01.671Z,2.55
2023-05-02T17:12:28.502Z,2.85
2023-05-02T17:14:54.998Z,3.05
2023-05-02T17:17:21.524Z,3.05
2023-05-02T17:19:48.082Z,2.80
2023-05-02T17:22:14.699Z,3.75
2023-05-02T17:24:41.265Z,3.17
2023-05-02T17:27:08.014Z,3.55
2023-05-02T17:29:34.497Z,3.90
2023-05-02T17:32:01.084Z,2.53
2023-05-02T17:34:27.695Z,2.70
2023-05-02T17:36:54.480Z,2.50
2023-05-02T17:39:21.024Z,2.58
2023-05-02T17:41:47.552Z,2.92
2023-05-02T17:44:14.120Z,3.13
2023-05-02T17:46:40.783Z,3.28
2023-05-02T17:49:09.921Z,2.80
2023-05-02T17:51:36.465Z,2.92
2023-05-02T17:54:03.037Z,2.85
2023-05-02T17:56:29.609Z,2.80
2023-05-02T17:58:56.159Z,2.88
2023-05-02T18:01:22.790Z,2.80
2023-05-02T18:03:49.536Z,3.35
2023-05-02T18:06:17.019Z,2.90
2023-05-02T18:08:44.345Z,2.60
2023-05-02T18:11:15.580Z,3.08
2023-05-02T18:13:42.436Z,2.95
2023-05-02T18:16:09.029Z,2.88
2023-05-02T18:18:38.328Z,2.95
2023-05-02T18:21:05.029Z,2.97
2023-05-02T18:23:32.651Z,2.92
2023-05-02T18:26:01.566Z,3.53
2023-05-02T18:28:28.171Z,2.83
2023-05-02T18:30:54.697Z,2.85
2023-05-02T18:33:21.677Z,3.92
2023-05-02T18:35:51.477Z,4.95
2023-05-02T18:40:46.677Z,5.07
2023-05-02T18:43:13.563Z,3.97
2023-05-02T18:45:40.186Z,3.67
2023-05-02T18:48:06.883Z,4.05
2023-05-02T18:50:33.499Z,4.00
2023-05-02T18:53:03.093Z,3.90
2023-05-02T18:55:32.287Z,3.70
2023-05-02T18:57:58.785Z,3.30
2023-05-02T19:00:25.284Z,3.38
2023-05-02T19:02:52.423Z,3.50
2023-05-02T19:05:19.253Z,3.22
2023-05-02T19:07:46.017Z,4.20
2023-05-02T19:10:12.560Z,3.67
2023-05-02T19:12:39.906Z,2.90
2023-05-02T19:15:07.785Z,3.63
2023-05-02T19:17:34.420Z,4.15
2023-05-02T19:20:00.982Z,3.10
2023-05-02T19:22:27.764Z,3.90
2023-05-02T19:24:54.524Z,3.85
2023-05-02T19:27:21.285Z,3.88
2023-05-02T19:29:47.895Z,4.28
2023-05-02T19:32:14.993Z,5.15
2023-05-02T19:34:41.629Z,5.38
2023-05-02T19:37:08.362Z,4.78
2023-05-02T19:39:34.891Z,5.13
2023-05-02T19:42:01.427Z,5.05
2023-05-02T19:44:28.297Z,5.10
2023-05-02T19:46:54.834Z,5.60
2023-05-02T19:49:21.514Z,5.05
2023-05-02T19:51:48.102Z,4.80
2023-05-02T19:54:14.764Z,3.95
2023-05-02T19:56:41.279Z,3.95
2023-05-02T19:59:07.861Z,4.50
2023-05-02T20:01:34.635Z,4.35
2023-05-02T20:04:01.372Z,4.65
2023-05-02T20:06:28.001Z,4.60
2023-05-02T20:08:54.565Z,5.20
2023-05-02T20:11:21.114Z,4.03
2023-05-02T20:13:47.689Z,4.70
2023-05-02T20:16:14.903Z,3.97
2023-05-02T20:18:41.501Z,4.70
2023-05-02T20:21:14.895Z,4.28
2023-05-02T20:23:42.985Z,5.25
2023-05-02T20:26:09.882Z,5.22
2023-05-02T20:28:37.465Z,4.75
2023-05-02T20:31:07.197Z,4.57
2023-05-02T20:33:44.725Z,4.57
2023-05-02T20:36:12.831Z,4.40
2023-05-02T20:38:39.411Z,4.50
2023-05-02T20:41:05.962Z,4.35
2023-05-02T20:43:32.567Z,4.47
2023-05-02T20:46:09.369Z,4.90
2023-05-02T20:48:35.981Z,4.65
2023-05-02T20:51:02.535Z,5.22
2023-05-02T20:53:29.046Z,4.97
2023-05-02T20:55:55.560Z,4.57
2023-05-02T20:58:22.113Z,4.40
2023-05-02T21:00:48.694Z,4.65
2023-05-02T21:03:15.278Z,4.63
2023-05-02T21:05:41.823Z,4.70
2023-05-02T21:08:08.401Z,4.47
2023-05-02T21:10:34.920Z,5.10
2023-05-02T21:13:01.495Z,4.43
2023-05-02T21:15:28.081Z,4.93
2023-05-02T21:18:04.773Z,4.28
2023-05-02T21:20:31.380Z,4.57
2023-05-02T21:22:57.886Z,3.97
2023-05-02T21:25:24.632Z,4.25
2023-05-02T21:27:52.154Z,3.83
2023-05-02T21:30:18.861Z,3.97
2023-05-02T21:32:45.666Z,4.68
2023-05-02T21:35:12.428Z,4.32
2023-05-02T21:37:38.969Z,4.07
2023-05-02T21:40:06.191Z,3.90
2023-05-02T21:42:32.731Z,4.50
2023-05-02T21:44:59.252Z,3.75
2023-05-02T21:47:25.845Z,4.45
2023-05-02T21:49:54.086Z,4.20
2023-05-02T21:52:20.582Z,4.25
2023-05-02T21:54:47.093Z,4.22
2023-05-02T21:57:13.599Z,5.10
2023-05-02T21:59:40.107Z,5.13
2023-05-02T22:02:06.665Z,4.25
2023-05-02T22:04:33.171Z,4.47
2023-05-02T22:06:59.644Z,4.30
2023-05-02T22:09:26.152Z,4.38
2023-05-02T22:11:55.692Z,4.90
2023-05-02T22:14:25.461Z,4.75
2023-05-02T22:16:56.949Z,4.97
2023-05-02T22:19:24.282Z,4.82
2023-05-02T22:21:50.884Z,4.28
2023-05-02T22:24:17.412Z,5.10
2023-05-02T22:26:43.909Z,4.90
2023-05-02T22:29:10.448Z,4.15
2023-05-02T22:31:36.989Z,4.53
2023-05-02T22:34:03.515Z,5.32
2023-05-02T22:36:29.979Z,4.63
2023-05-02T22:38:56.573Z,5.07
2023-05-02T22:41:23.087Z,4.75
2023-05-02T22:43:49.567Z,4.88
2023-05-02T22:46:16.093Z,4.88
2023-05-02T22:48:42.628Z,5.25
2023-05-02T22:51:09.246Z,5.32
2023-05-02T22:53:35.784Z,5.10
2023-05-02T22:56:02.341Z,4.53
2023-05-02T22:58:28.834Z,4.63
2023-05-02T23:00:55.788Z,4.07
2023-05-02T23:03:22.411Z,5.40
2023-05-02T23:05:49.060Z,4.85
2023-05-02T23:08:15.548Z,4.88
2023-05-02T23:10:42.084Z,4.55
2023-05-02T23:13:08.572Z,3.70
2023-05-02T23:15:35.238Z,4.05
2023-05-02T23:18:01.834Z,4.03
2023-05-02T23:20:28.424Z,4.25
2023-05-02T23:22:54.946Z,5.28
2023-05-02T23:25:22.619Z,4.38
2023-05-02T23:27:49.163Z,4.53
2023-05-02T23:30:15.721Z,4.50
2023-05-02T23:32:42.341Z,4.47
2023-05-02T23:35:10.516Z,4.72
2023-05-02T23:37:38.121Z,4.43
2023-05-02T23:40:06.233Z,4.55
2023-05-02T23:42:33.312Z,4.50
2023-05-02T23:44:59.787Z,4.53
2023-05-02T23:47:26.323Z,4.65
2023-05-02T23:49:53.892Z,4.30
2023-05-02T23:52:20.793Z,4.63
2023-05-02T23:54:47.450Z,5.15
2023-05-02T23:57:13.945Z,5.28
2023-05-02T23:59:40.868Z,5.32
